sensor_id;sensor_type;location;lat;lon;timestamp;pressure;altitude;pressure_sealevel;temperature;humidity
43161;BME280;40968;52.342;5.528;2022-12-01T00:01:21;102730.38;;;4.29;81.85
43161;BME280;40968;52.342;5.528;2022-12-01T00:03:47;102892.00;;;5.01;81.92
43161;BME280;40968;52.342;5.528;2022-12-01T00:06:17;102819.75;;;4.80;81.88
43161;BME280;40968;52.342;5.528;2022-12-01T00:08:46;102603.38;;;3.58;81.63
43161;BME280;40968;52.342;5.528;2022-12-01T00:11:26;102845.97;;;5.01;81.64
43161;BME280;40968;52.342;5.528;2022-12-01T00:13:54;102793.47;;;4.67;81.67
43161;BME280;40968;52.342;5.528;2022-12-01T00:16:21;102844.31;;;4.93;81.75
43161;BME280;40968;52.342;5.528;2022-12-01T00:18:48;102805.13;;;4.58;81.76
43161;BME280;40968;52.342;5.528;2022-12-01T00:21:17;102851.28;;;5.01;81.83
43161;BME280;40968;52.342;5.528;2022-12-01T00:23:44;102622.66;;;3.68;81.87
43161;BME280;40968;52.342;5.528;2022-12-01T00:26:11;102486.22;;;2.82;81.70
43161;BME280;40968;52.342;5.528;2022-12-01T00:28:38;102740.94;;;4.32;81.87
43161;BME280;40968;52.342;5.528;2022-12-01T00:31:07;102784.69;;;4.61;81.73
43161;BME280;40968;52.342;5.528;2022-12-01T00:33:34;102594.63;;;3.53;81.88
43161;BME280;40968;52.342;5.528;2022-12-01T00:36:01;102603.53;;;3.47;81.82
43161;BME280;40968;52.342;5.528;2022-12-01T00:38:28;102529.84;;;3.16;81.83
43161;BME280;40968;52.342;5.528;2022-12-01T00:40:54;102854.13;;;4.91;81.98
43161;BME280;40968;52.342;5.528;2022-12-01T00:43:21;102856.53;;;5.04;82.10
43161;BME280;40968;52.342;5.528;2022-12-01T00:45:48;102844.16;;;5.03;81.95
43161;BME280;40968;52.342;5.528;2022-12-01T00:48:16;102576.34;;;3.36;81.95
43161;BME280;40968;52.342;5.528;2022-12-01T00:50:43;102847.69;;;5.02;81.84
43161;BME280;40968;52.342;5.528;2022-12-01T00:53:09;102800.41;;;4.74;81.96
43161;BME280;40968;52.342;5.528;2022-12-01T00:55:37;102721.75;;;4.17;81.92
43161;BME280;40968;52.342;5.528;2022-12-01T00:58:04;102856.59;;;5.01;82.12
43161;BME280;40968;52.342;5.528;2022-12-01T01:00:31;102851.28;;;5.01;81.93
43161;BME280;40968;52.342;5.528;2022-12-01T01:02:58;102850.34;;;5.02;81.96
43161;BME280;40968;52.342;5.528;2022-12-01T01:05:26;102810.19;;;4.70;82.19
43161;BME280;40968;52.342;5.528;2022-12-01T01:07:52;102818.03;;;4.78;82.15
43161;BME280;40968;52.342;5.528;2022-12-01T01:10:19;102830.34;;;4.82;82.19
43161;BME280;40968;52.342;5.528;2022-12-01T01:12:46;102858.34;;;5.02;82.15
43161;BME280;40968;52.342;5.528;2022-12-01T01:15:13;102807.56;;;4.69;82.19
43161;BME280;40968;52.342;5.528;2022-12-01T01:17:40;102863.66;;;5.03;82.21
43161;BME280;40968;52.342;5.528;2022-12-01T01:20:07;102643.69;;;3.78;82.07
43161;BME280;40968;52.342;5.528;2022-12-01T01:22:36;102590.34;;;3.44;82.00
43161;BME280;40968;52.342;5.528;2022-12-01T01:25:02;102869.75;;;5.07;82.31
43161;BME280;40968;52.342;5.528;2022-12-01T01:27:29;102860.06;;;5.06;82.25
43161;BME280;40968;52.342;5.528;2022-12-01T01:29:56;102867.09;;;5.07;82.16
43161;BME280;40968;52.342;5.528;2022-12-01T01:32:23;102830.34;;;4.82;82.08
43161;BME280;40968;52.342;5.528;2022-12-01T01:34:50;102873.31;;;5.07;82.16
43161;BME280;40968;52.342;5.528;2022-12-01T01:37:17;102880.38;;;5.07;82.21
43161;BME280;40968;52.342;5.528;2022-12-01T01:39:45;102625.47;;;3.58;82.16
43161;BME280;40968;52.342;5.528;2022-12-01T01:42:12;102778.69;;;4.50;82.43
43161;BME280;40968;52.342;5.528;2022-12-01T01:44:50;102874.16;;;5.08;82.27
43161;BME280;40968;52.342;5.528;2022-12-01T01:47:21;102884.81;;;5.08;82.42
43161;BME280;40968;52.342;5.528;2022-12-01T01:49:50;102649.91;;;3.77;82.17
43161;BME280;40968;52.342;5.528;2022-12-01T01:52:17;102884.81;;;5.08;82.36
43161;BME280;40968;52.342;5.528;2022-12-01T01:54:48;102781.28;;;4.53;82.29
43161;BME280;40968;52.342;5.528;2022-12-01T01:57:21;102856.75;;;4.93;82.29
43161;BME280;40968;52.342;5.528;2022-12-01T01:59:51;102876.00;;;5.06;82.52
43161;BME280;40968;52.342;5.528;2022-12-01T02:02:20;102846.44;;;4.73;82.46
43161;BME280;40968;52.342;5.528;2022-12-01T02:04:49;102876.88;;;5.06;82.61
43161;BME280;40968;52.342;5.528;2022-12-01T02:07:19;102755.03;;;4.36;82.55
43161;BME280;40968;52.342;5.528;2022-12-01T02:09:47;102650.78;;;3.78;82.50
43161;BME280;40968;52.342;5.528;2022-12-01T02:12:26;102847.88;;;4.94;82.69
43161;BME280;40968;52.342;5.528;2022-12-01T02:14:57;102866.28;;;5.05;82.84
43161;BME280;40968;52.342;5.528;2022-12-01T02:17:33;102851.28;;;5.01;82.66
43161;BME280;40968;52.342;5.528;2022-12-01T02:20:55;102860.09;;;5.03;82.57
43161;BME280;40968;52.342;5.528;2022-12-01T02:24:00;102805.78;;;4.71;82.81
43161;BME280;40968;52.342;5.528;2022-12-01T02:26:43;102541.28;;;3.18;82.73
43161;BME280;40968;52.342;5.528;2022-12-01T02:29:33;102853.00;;;5.02;82.96
43161;BME280;40968;52.342;5.528;2022-12-01T02:32:10;102812.09;;;4.63;83.13
43161;BME280;40968;52.342;5.528;2022-12-01T02:34:43;102818.16;;;4.72;82.89
43161;BME280;40968;52.342;5.528;2022-12-01T02:37:21;102868.97;;;5.02;82.82
43161;BME280;40968;52.342;5.528;2022-12-01T02:39:54;102799.94;;;4.50;82.97
43161;BME280;40968;52.342;5.528;2022-12-01T02:42:28;102758.50;;;4.40;82.91
43161;BME280;40968;52.342;5.528;2022-12-01T02:45:26;102617.59;;;3.52;82.83
43161;BME280;40968;52.342;5.528;2022-12-01T02:47:59;102818.94;;;4.77;82.96
43161;BME280;40968;52.342;5.528;2022-12-01T02:50:27;102863.66;;;5.02;82.89
43161;BME280;40968;52.342;5.528;2022-12-01T02:52:54;102771.66;;;4.47;82.90
43161;BME280;40968;52.342;5.528;2022-12-01T02:55:21;102864.56;;;4.99;83.08
43161;BME280;40968;52.342;5.528;2022-12-01T02:57:48;102867.22;;;4.99;83.06
43161;BME280;40968;52.342;5.528;2022-12-01T03:00:15;102864.56;;;5.01;82.92
43161;BME280;40968;52.342;5.528;2022-12-01T03:02:51;102762.09;;;4.37;83.11
43161;BME280;40968;52.342;5.528;2022-12-01T03:05:28;102731.53;;;4.14;83.07
43161;BME280;40968;52.342;5.528;2022-12-01T03:08:01;102852.59;;;4.76;83.11
43161;BME280;40968;52.342;5.528;2022-12-01T03:10:39;102769.09;;;4.43;83.00
43161;BME280;40968;52.342;5.528;2022-12-01T03:13:20;102849.72;;;4.87;82.94
43161;BME280;40968;52.342;5.528;2022-12-01T03:15:56;102608.88;;;3.45;82.96
43161;BME280;40968;52.342;5.528;2022-12-01T03:18:31;102790.19;;;4.52;82.93
43161;BME280;40968;52.342;5.528;2022-12-01T03:21:06;102546.84;;;3.03;82.66
43161;BME280;40968;52.342;5.528;2022-12-01T03:23:37;102878.72;;;5.01;83.08
43161;BME280;40968;52.342;5.528;2022-12-01T03:26:07;102799.78;;;4.59;82.93
43161;BME280;40968;52.342;5.528;2022-12-01T03:28:37;102875.16;;;5.02;83.02
43161;BME280;40968;52.342;5.528;2022-12-01T03:31:09;102790.09;;;4.55;82.92
43161;BME280;40968;52.342;5.528;2022-12-01T03:33:40;102873.34;;;5.04;83.07
43161;BME280;40968;52.342;5.528;2022-12-01T03:36:13;102868.94;;;5.05;83.15
43161;BME280;40968;52.342;5.528;2022-12-01T03:38:44;102876.91;;;5.05;83.26
43161;BME280;40968;52.342;5.528;2022-12-01T03:41:16;102869.78;;;5.05;83.05
43161;BME280;40968;52.342;5.528;2022-12-01T03:43:50;102865.38;;;5.04;83.01
43161;BME280;40968;52.342;5.528;2022-12-01T03:46:24;102621.88;;;3.61;82.79
43161;BME280;40968;52.342;5.528;2022-12-01T03:48:54;102798.97;;;4.54;82.97
43161;BME280;40968;52.342;5.528;2022-12-01T03:51:29;102794.47;;;4.59;82.92
43161;BME280;40968;52.342;5.528;2022-12-01T03:53:59;102594.69;;;3.48;82.97
43161;BME280;40968;52.342;5.528;2022-12-01T03:56:30;102564.94;;;3.30;82.88
43161;BME280;40968;52.342;5.528;2022-12-01T03:59:00;102748.09;;;4.29;83.03
43161;BME280;40968;52.342;5.528;2022-12-01T04:01:29;102861.94;;;4.97;83.09
43161;BME280;40968;52.342;5.528;2022-12-01T04:04:03;102848.00;;;4.86;83.03
43161;BME280;40968;52.342;5.528;2022-12-01T04:06:31;102754.31;;;4.26;82.97
43161;BME280;40968;52.342;5.528;2022-12-01T04:08:58;102594.88;;;3.37;82.95
43161;BME280;40968;52.342;5.528;2022-12-01T04:11:25;102786.66;;;4.50;83.01
43161;BME280;40968;52.342;5.528;2022-12-01T04:14:09;102804.94;;;4.67;83.19
43161;BME280;40968;52.342;5.528;2022-12-01T04:16:36;102791.81;;;4.59;83.16
43161;BME280;40968;52.342;5.528;2022-12-01T04:19:02;102810.31;;;4.64;82.94
43161;BME280;40968;52.342;5.528;2022-12-01T04:21:29;102831.31;;;4.79;83.17
43161;BME280;40968;52.342;5.528;2022-12-01T04:23:57;102620.22;;;3.54;83.05
43161;BME280;40968;52.342;5.528;2022-12-01T04:26:27;102775.53;;;4.28;83.07
43161;BME280;40968;52.342;5.528;2022-12-01T04:28:53;102863.72;;;4.98;83.30
43161;BME280;40968;52.342;5.528;2022-12-01T04:31:20;102809.44;;;4.63;83.11
43161;BME280;40968;52.342;5.528;2022-12-01T04:33:47;102865.50;;;4.96;83.20
43161;BME280;40968;52.342;5.528;2022-12-01T04:36:13;102567.63;;;3.27;83.18
43161;BME280;40968;52.342;5.528;2022-12-01T04:38:40;102883.22;;;4.97;83.46
43161;BME280;40968;52.342;5.528;2022-12-01T04:41:08;102618.53;;;3.51;83.05
43161;BME280;40968;52.342;5.528;2022-12-01T04:43:36;102877.06;;;4.95;83.23
43161;BME280;40968;52.342;5.528;2022-12-01T04:46:03;102893.91;;;4.94;83.24
43161;BME280;40968;52.342;5.528;2022-12-01T04:48:30;102834.25;;;4.62;83.52
43161;BME280;40968;52.342;5.528;2022-12-01T04:50:57;102891.25;;;4.94;83.43
43161;BME280;40968;52.342;5.528;2022-12-01T04:53:24;102843.78;;;4.73;83.14
43161;BME280;40968;52.342;5.528;2022-12-01T04:55:51;102884.22;;;4.92;83.20
43161;BME280;40968;52.342;5.528;2022-12-01T04:58:18;102877.16;;;4.89;83.29
43161;BME280;40968;52.342;5.528;2022-12-01T05:00:45;102829.06;;;4.56;83.21
43161;BME280;40968;52.342;5.528;2022-12-01T05:03:12;102643.25;;;3.52;83.14
43161;BME280;40968;52.342;5.528;2022-12-01T05:05:38;102833.31;;;4.65;83.23
43161;BME280;40968;52.342;5.528;2022-12-01T05:08:05;102793.09;;;4.37;83.15
43161;BME280;40968;52.342;5.528;2022-12-01T05:10:33;102828.25;;;4.51;83.25
43161;BME280;40968;52.342;5.528;2022-12-01T05:13:00;102716.00;;;3.90;83.08
43161;BME280;40968;52.342;5.528;2022-12-01T05:15:31;102713.53;;;3.79;83.18
43161;BME280;40968;52.342;5.528;2022-12-01T05:17:58;102672.34;;;3.55;83.16
43161;BME280;40968;52.342;5.528;2022-12-01T05:20:25;102830.16;;;4.43;83.45
43161;BME280;40968;52.342;5.528;2022-12-01T05:23:10;102893.34;;;4.77;83.38
43161;BME280;40968;52.342;5.528;2022-12-01T05:25:36;102902.19;;;4.77;83.38
43161;BME280;40968;52.342;5.528;2022-12-01T05:28:03;102783.63;;;4.20;83.33
43161;BME280;40968;52.342;5.528;2022-12-01T05:30:32;102598.78;;;3.14;83.27
43161;BME280;40968;52.342;5.528;2022-12-01T05:32:58;102725.03;;;3.78;83.28
43161;BME280;40968;52.342;5.528;2022-12-01T05:35:25;102894.25;;;4.76;83.46
43161;BME280;40968;52.342;5.528;2022-12-01T05:37:52;102853.88;;;4.54;83.43
43161;BME280;40968;52.342;5.528;2022-12-01T05:40:18;102887.19;;;4.73;83.66
43161;BME280;40968;52.342;5.528;2022-12-01T05:42:45;102887.16;;;4.75;83.71
43161;BME280;40968;52.342;5.528;2022-12-01T05:45:11;102776.66;;;4.13;83.51
43161;BME280;40968;52.342;5.528;2022-12-01T05:47:39;102892.47;;;4.75;83.49
43161;BME280;40968;52.342;5.528;2022-12-01T05:50:07;102837.19;;;4.44;83.40
43161;BME280;40968;52.342;5.528;2022-12-01T05:52:34;102834.81;;;4.28;83.69
43161;BME280;40968;52.342;5.528;2022-12-01T05:55:01;102823.09;;;4.42;83.44
43161;BME280;40968;52.342;5.528;2022-12-01T05:57:27;102884.47;;;4.76;83.39
43161;BME280;40968;52.342;5.528;2022-12-01T05:59:54;102876.53;;;4.75;83.22
43161;BME280;40968;52.342;5.528;2022-12-01T06:02:20;102881.91;;;4.72;83.30
43161;BME280;40968;52.342;5.528;2022-12-01T06:04:48;102630.41;;;3.24;83.13
43161;BME280;40968;52.342;5.528;2022-12-01T06:07:15;102875.78;;;4.68;83.27
43161;BME280;40968;52.342;5.528;2022-12-01T06:09:42;102882.84;;;4.68;83.23
43161;BME280;40968;52.342;5.528;2022-12-01T06:12:10;102917.41;;;4.66;83.21
43161;BME280;40968;52.342;5.528;2022-12-01T06:14:37;102776.81;;;4.04;82.99
43161;BME280;40968;52.342;5.528;2022-12-01T06:17:04;102888.25;;;4.63;82.89
43161;BME280;40968;52.342;5.528;2022-12-01T06:19:31;102848.84;;;4.37;82.97
43161;BME280;40968;52.342;5.528;2022-12-01T06:21:58;102690.16;;;3.46;82.80
43161;BME280;40968;52.342;5.528;2022-12-01T06:24:25;102865.50;;;4.45;82.99
43161;BME280;40968;52.342;5.528;2022-12-01T06:26:52;102870.00;;;4.43;82.71
43161;BME280;40968;52.342;5.528;2022-12-01T06:29:18;102820.13;;;4.04;82.67
43161;BME280;40968;52.342;5.528;2022-12-01T06:31:45;102892.94;;;4.47;82.53
43161;BME280;40968;52.342;5.528;2022-12-01T06:34:12;102544.13;;;2.43;82.34
43161;BME280;40968;52.342;5.528;2022-12-01T06:36:38;102900.13;;;4.39;82.61
43161;BME280;40968;52.342;5.528;2022-12-01T06:39:07;102807.31;;;3.75;82.67
43161;BME280;40968;52.342;5.528;2022-12-01T06:41:34;102894.94;;;4.29;82.58
43161;BME280;40968;52.342;5.528;2022-12-01T06:44:01;102898.53;;;4.27;82.94
43161;BME280;40968;52.342;5.528;2022-12-01T06:46:28;102899.44;;;4.24;82.78
43161;BME280;40968;52.342;5.528;2022-12-01T06:48:54;102900.38;;;4.23;82.82
43161;BME280;40968;52.342;5.528;2022-12-01T06:51:21;102726.88;;;3.12;82.64
43161;BME280;40968;52.342;5.528;2022-12-01T06:53:51;102549.88;;;2.05;82.76
43161;BME280;40968;52.342;5.528;2022-12-01T06:56:20;102906.75;;;4.11;83.08
43161;BME280;40968;52.342;5.528;2022-12-01T06:58:47;102922.72;;;4.07;83.30
43161;BME280;40968;52.342;5.528;2022-12-01T07:01:15;102664.06;;;2.47;82.97
43161;BME280;40968;52.342;5.528;2022-12-01T07:03:41;102491.66;;;1.24;82.87
43161;BME280;40968;52.342;5.528;2022-12-01T07:06:08;102713.25;;;2.68;83.47
43161;BME280;40968;52.342;5.528;2022-12-01T07:08:36;102929.09;;;3.93;83.69
43161;BME280;40968;52.342;5.528;2022-12-01T07:11:05;102925.56;;;3.91;83.59
43161;BME280;40968;52.342;5.528;2022-12-01T07:13:34;102885.25;;;3.64;83.24
43161;BME280;40968;52.342;5.528;2022-12-01T07:16:01;102929.16;;;3.87;83.47
43161;BME280;40968;52.342;5.528;2022-12-01T07:18:28;102930.94;;;3.85;83.60
43161;BME280;40968;52.342;5.528;2022-12-01T07:20:58;102936.28;;;3.82;83.61
43161;BME280;40968;52.342;5.528;2022-12-01T07:23:25;102882.13;;;3.28;83.86
43161;BME280;40968;52.342;5.528;2022-12-01T07:25:57;102639.84;;;2.03;84.03
43161;BME280;40968;52.342;5.528;2022-12-01T07:28:23;102839.75;;;3.25;84.11
43161;BME280;40968;52.342;5.528;2022-12-01T07:30:51;102597.72;;;1.81;84.01
43161;BME280;40968;52.342;5.528;2022-12-01T07:33:18;102669.50;;;2.31;84.29
43161;BME280;40968;52.342;5.528;2022-12-01T07:35:45;102767.81;;;2.83;84.03
43161;BME280;40968;52.342;5.528;2022-12-01T07:38:11;102850.28;;;3.31;83.91
43161;BME280;40968;52.342;5.528;2022-12-01T07:40:38;102595.19;;;1.68;83.61
43161;BME280;40968;52.342;5.528;2022-12-01T07:43:04;102912.66;;;3.63;84.07
43161;BME280;40968;52.342;5.528;2022-12-01T07:45:31;102710.84;;;2.46;84.00
43161;BME280;40968;52.342;5.528;2022-12-01T07:47:59;102952.22;;;3.82;84.36
43161;BME280;40968;52.342;5.528;2022-12-01T07:50:25;102946.00;;;3.85;84.29
43161;BME280;40968;52.342;5.528;2022-12-01T07:52:52;102951.28;;;3.86;84.60
43161;BME280;40968;52.342;5.528;2022-12-01T07:55:18;102731.00;;;2.58;84.37
43161;BME280;40968;52.342;5.528;2022-12-01T07:57:45;102849.47;;;3.26;84.48
43161;BME280;40968;52.342;5.528;2022-12-01T08:00:12;102642.41;;;2.09;84.25
43161;BME280;40968;52.342;5.528;2022-12-01T08:02:39;102959.06;;;4.00;84.74
43161;BME280;40968;52.342;5.528;2022-12-01T08:05:08;102966.13;;;4.03;84.46
43161;BME280;40968;52.342;5.528;2022-12-01T08:07:34;102958.09;;;4.06;84.44
43161;BME280;40968;52.342;5.528;2022-12-01T08:10:01;102973.09;;;4.10;84.20
43161;BME280;40968;52.342;5.528;2022-12-01T08:12:27;102968.66;;;4.10;84.44
43161;BME280;40968;52.342;5.528;2022-12-01T08:14:54;102974.84;;;4.11;84.38
43161;BME280;40968;52.342;5.528;2022-12-01T08:17:20;102968.66;;;4.12;84.27
43161;BME280;40968;52.342;5.528;2022-12-01T08:19:47;102894.25;;;3.51;84.29
43161;BME280;40968;52.342;5.528;2022-12-01T08:22:15;102976.56;;;4.15;84.49
43161;BME280;40968;52.342;5.528;2022-12-01T08:24:42;102980.03;;;4.20;84.72
43161;BME280;40968;52.342;5.528;2022-12-01T08:27:08;102885.19;;;3.68;84.56
43161;BME280;40968;52.342;5.528;2022-12-01T08:29:35;102871.19;;;3.56;84.46
43161;BME280;40968;52.342;5.528;2022-12-01T08:32:01;102725.53;;;2.72;84.53
43161;BME280;40968;52.342;5.528;2022-12-01T08:34:28;102988.78;;;4.28;84.75
43161;BME280;40968;52.342;5.528;2022-12-01T08:36:54;102942.28;;;3.98;84.65
43161;BME280;40968;52.342;5.528;2022-12-01T08:39:22;102757.03;;;2.98;84.47
43161;BME280;40968;52.342;5.528;2022-12-01T08:41:49;102877.25;;;3.68;84.21
43161;BME280;40968;52.342;5.528;2022-12-01T08:44:16;102709.63;;;2.74;84.62
43161;BME280;40968;52.342;5.528;2022-12-01T08:46:42;102792.97;;;3.23;84.59
43161;BME280;40968;52.342;5.528;2022-12-01T08:49:09;102909.50;;;4.02;84.62
43161;BME280;40968;52.342;5.528;2022-12-01T08:51:35;102926.22;;;4.09;84.49
43161;BME280;40968;52.342;5.528;2022-12-01T08:54:02;102984.94;;;4.51;84.53
43161;BME280;40968;52.342;5.528;2022-12-01T08:56:32;102979.56;;;4.54;84.57
43161;BME280;40968;52.342;5.528;2022-12-01T08:58:59;102658.53;;;2.67;84.36
43161;BME280;40968;52.342;5.528;2022-12-01T09:01:26;102963.69;;;4.48;84.57
43161;BME280;40968;52.342;5.528;2022-12-01T09:03:55;102679.53;;;2.82;84.25
43161;BME280;40968;52.342;5.528;2022-12-01T09:06:33;102923.25;;;4.30;84.38
43161;BME280;40968;52.342;5.528;2022-12-01T09:09:02;102982.84;;;4.70;84.27
43161;BME280;40968;52.342;5.528;2022-12-01T09:11:30;103020.03;;;4.70;84.01
43161;BME280;40968;52.342;5.528;2022-12-01T09:13:58;102904.75;;;4.27;83.83
43161;BME280;40968;52.342;5.528;2022-12-01T09:16:25;102891.50;;;4.24;83.90
43161;BME280;40968;52.342;5.528;2022-12-01T09:18:51;102970.56;;;4.64;83.97
43161;BME280;40968;52.342;5.528;2022-12-01T09:21:20;102977.44;;;4.78;83.89
43161;BME280;40968;52.342;5.528;2022-12-01T09:23:47;102856.41;;;4.05;83.85
43161;BME280;40968;52.342;5.528;2022-12-01T09:26:15;102977.41;;;4.81;83.91
43161;BME280;40968;52.342;5.528;2022-12-01T09:28:45;102978.22;;;4.83;83.95
43161;BME280;40968;52.342;5.528;2022-12-01T09:31:13;102985.28;;;4.86;83.88
43161;BME280;40968;52.342;5.528;2022-12-01T09:33:40;102977.28;;;4.87;83.85
43161;BME280;40968;52.342;5.528;2022-12-01T09:36:08;102848.41;;;4.07;83.68
43161;BME280;40968;52.342;5.528;2022-12-01T09:38:36;102879.94;;;4.28;84.00
43161;BME280;40968;52.342;5.528;2022-12-01T09:41:05;103003.72;;;4.95;83.89
43161;BME280;40968;52.342;5.528;2022-12-01T09:43:38;102717.66;;;3.41;83.67
43161;BME280;40968;52.342;5.528;2022-12-01T09:46:11;102993.03;;;5.00;83.79
43161;BME280;40968;52.342;5.528;2022-12-01T09:48:44;102821.03;;;4.03;83.47
43161;BME280;40968;52.342;5.528;2022-12-01T09:51:12;102687.69;;;3.32;83.44
43161;BME280;40968;52.342;5.528;2022-12-01T09:53:40;102976.06;;;5.07;83.52
43161;BME280;40968;52.342;5.528;2022-12-01T09:56:17;102772.59;;;3.90;83.34
43161;BME280;40968;52.342;5.528;2022-12-01T09:58:44;102965.38;;;5.11;83.32
43161;BME280;40968;52.342;5.528;2022-12-01T10:01:16;102699.66;;;3.61;82.78
43161;BME280;40968;52.342;5.528;2022-12-01T10:03:45;102962.63;;;5.16;83.08
43161;BME280;40968;52.342;5.528;2022-12-01T10:06:14;102884.56;;;4.70;83.29
43161;BME280;40968;52.342;5.528;2022-12-01T10:08:49;102955.44;;;5.23;83.02
43161;BME280;40968;52.342;5.528;2022-12-01T10:11:25;102863.28;;;4.73;82.88
43161;BME280;40968;52.342;5.528;2022-12-01T10:13:53;102960.59;;;5.30;83.14
43161;BME280;40968;52.342;5.528;2022-12-01T10:16:25;102907.06;;;5.02;82.87
43161;BME280;40968;52.342;5.528;2022-12-01T10:18:57;102864.06;;;4.80;82.68
43161;BME280;40968;52.342;5.528;2022-12-01T10:21:39;102920.88;;;5.21;82.44
43161;BME280;40968;52.342;5.528;2022-12-01T10:24:25;102854.22;;;4.85;82.23
43161;BME280;40968;52.342;5.528;2022-12-01T10:26:58;102700.78;;;4.01;82.08
43161;BME280;40968;52.342;5.528;2022-12-01T10:29:34;102961.78;;;5.62;82.04
43161;BME280;40968;52.342;5.528;2022-12-01T10:32:16;102677.81;;;4.00;81.98
43161;BME280;40968;52.342;5.528;2022-12-01T10:34:43;102779.94;;;4.79;81.66
43161;BME280;40968;52.342;5.528;2022-12-01T10:37:15;102951.50;;;5.88;81.27
43161;BME280;40968;52.342;5.528;2022-12-01T10:39:45;102948.69;;;5.95;80.75
43161;BME280;40968;52.342;5.528;2022-12-01T10:42:16;102666.63;;;4.32;80.54
43161;BME280;40968;52.342;5.528;2022-12-01T10:44:44;102950.41;;;6.00;80.36
43161;BME280;40968;52.342;5.528;2022-12-01T10:47:17;102952.16;;;6.01;80.17
43161;BME280;40968;52.342;5.528;2022-12-01T10:49:44;102850.56;;;5.38;80.04
43161;BME280;40968;52.342;5.528;2022-12-01T10:52:30;102932.03;;;5.87;79.82
43161;BME280;40968;52.342;5.528;2022-12-01T10:54:57;102949.56;;;5.97;79.96
43161;BME280;40968;52.342;5.528;2022-12-01T10:57:25;102945.94;;;6.02;80.35
43161;BME280;40968;52.342;5.528;2022-12-01T10:59:55;102816.06;;;5.35;80.14
43161;BME280;40968;52.342;5.528;2022-12-01T11:02:26;102926.28;;;6.07;80.27
43161;BME280;40968;52.342;5.528;2022-12-01T11:04:55;102815.00;;;5.42;79.66
43161;BME280;40968;52.342;5.528;2022-12-01T11:07:24;102954.38;;;6.22;79.21
43161;BME280;40968;52.342;5.528;2022-12-01T11:10:15;102734.19;;;5.07;79.01
43161;BME280;40968;52.342;5.528;2022-12-01T11:12:45;102894.59;;;5.93;78.46
43161;BME280;40968;52.342;5.528;2022-12-01T11:15:20;102951.38;;;6.36;78.33
43161;BME280;40968;52.342;5.528;2022-12-01T11:17:56;102853.72;;;5.99;78.27
43161;BME280;40968;52.342;5.528;2022-12-01T11:20:27;102688.44;;;4.94;78.08
43161;BME280;40968;52.342;5.528;2022-12-01T11:23:20;102883.25;;;6.26;77.35
43161;BME280;40968;52.342;5.528;2022-12-01T11:25:56;102936.38;;;6.71;76.72
43161;BME280;40968;52.342;5.528;2022-12-01T11:28:24;102673.75;;;5.17;76.25
43161;BME280;40968;52.342;5.528;2022-12-01T11:30:54;102929.19;;;6.75;75.98
43161;BME280;40968;52.342;5.528;2022-12-01T11:33:23;102634.97;;;5.08;76.05
43161;BME280;40968;52.342;5.528;2022-12-01T11:35:50;102917.53;;;6.79;76.04
43161;BME280;40968;52.342;5.528;2022-12-01T11:38:20;102908.81;;;6.72;75.75
43161;BME280;40968;52.342;5.528;2022-12-01T11:40:48;102761.19;;;5.70;75.37
43161;BME280;40968;52.342;5.528;2022-12-01T11:43:22;102615.88;;;4.90;75.42
43161;BME280;40968;52.342;5.528;2022-12-01T11:45:50;102919.75;;;6.60;75.54
43161;BME280;40968;52.342;5.528;2022-12-01T11:48:24;102862.84;;;6.26;75.78
43161;BME280;40968;52.342;5.528;2022-12-01T11:51:04;102828.63;;;6.09;76.09
43161;BME280;40968;52.342;5.528;2022-12-01T11:53:33;102777.75;;;5.82;75.65
43161;BME280;40968;52.342;5.528;2022-12-01T11:56:15;102830.19;;;6.18;75.77
43161;BME280;40968;52.342;5.528;2022-12-01T11:58:43;102617.88;;;4.79;75.83
43161;BME280;40968;52.342;5.528;2022-12-01T12:01:16;102903.38;;;6.75;75.68
43161;BME280;40968;52.342;5.528;2022-12-01T12:03:59;102849.13;;;6.42;75.66
43161;BME280;40968;52.342;5.528;2022-12-01T12:06:34;102899.72;;;6.79;75.59
43161;BME280;40968;52.342;5.528;2022-12-01T12:09:18;102901.50;;;6.80;75.53
43161;BME280;40968;52.342;5.528;2022-12-01T12:11:53;102903.09;;;6.86;74.99
43161;BME280;40968;52.342;5.528;2022-12-01T12:14:42;102607.53;;;5.07;74.71
43161;BME280;40968;52.342;5.528;2022-12-01T12:17:25;102770.97;;;6.08;74.76
43161;BME280;40968;52.342;5.528;2022-12-01T12:20:04;102891.63;;;6.84;74.43
43161;BME280;40968;52.342;5.528;2022-12-01T12:22:40;102889.97;;;6.80;74.11
43161;BME280;40968;52.342;5.528;2022-12-01T12:25:21;102896.19;;;6.79;74.36
43161;BME280;40968;52.342;5.528;2022-12-01T12:28:02;102893.53;;;6.79;74.35
43161;BME280;40968;52.342;5.528;2022-12-01T12:30:35;102893.59;;;6.76;74.09
43161;BME280;40968;52.342;5.528;2022-12-01T12:33:22;102890.97;;;6.74;74.02
43161;BME280;40968;52.342;5.528;2022-12-01T12:35:59;102828.81;;;6.39;74.24
43161;BME280;40968;52.342;5.528;2022-12-01T12:38:47;102889.25;;;6.72;73.73
43161;BME280;40968;52.342;5.528;2022-12-01T12:41:23;102876.03;;;6.69;73.47
43161;BME280;40968;52.342;5.528;2022-12-01T12:44:08;102828.19;;;6.28;73.92
43161;BME280;40968;52.342;5.528;2022-12-01T12:46:45;102821.59;;;6.43;73.77
43161;BME280;40968;52.342;5.528;2022-12-01T12:49:28;102819.75;;;6.46;73.70
43161;BME280;40968;52.342;5.528;2022-12-01T12:52:03;102820.75;;;6.42;73.40
43161;BME280;40968;52.342;5.528;2022-12-01T12:54:36;102769.91;;;6.16;73.69
43161;BME280;40968;52.342;5.528;2022-12-01T12:57:21;102830.16;;;6.56;73.81
43161;BME280;40968;52.342;5.528;2022-12-01T12:59:53;102832.19;;;6.46;73.96
43161;BME280;40968;52.342;5.528;2022-12-01T13:02:29;102872.28;;;6.76;73.70
43161;BME280;40968;52.342;5.528;2022-12-01T13:05:03;102871.31;;;6.78;73.52
43161;BME280;40968;52.342;5.528;2022-12-01T13:07:36;102873.94;;;6.82;73.48
43161;BME280;40968;52.342;5.528;2022-12-01T13:10:18;102872.97;;;6.84;73.95
43161;BME280;40968;52.342;5.528;2022-12-01T13:12:53;102873.84;;;6.85;74.04
43161;BME280;40968;52.342;5.528;2022-12-01T13:15:21;102870.22;;;6.87;73.92
43161;BME280;40968;52.342;5.528;2022-12-01T13:17:50;102806.34;;;6.50;73.57